Time;durP1;ratioP1;P1;durP2;ratioP2;P2;SDS_P1;SDS_P2;PMS_P1;PMS_P2;Temp;Humidity;BMP_temperature;BMP_pressure;BME280_temperature;BME280_humidity;BME280_pressure;Samples;Min_cycle;Max_cycle;Signal;HPM_P1;HPM_P2
2021/04/05 00:00:57;;;;;;;15.48;10.45;;;;;;;29.35;49.52;101012.75;4802821;29;69159;-32
2021/04/05 00:03:27;;;;;;;11.35;10.25;;;;;;;29.39;49.20;101016.69;4794946;29;64436;-32
2021/04/05 00:05:56;;;;;;;20.80;10.90;;;;;;;29.42;49.89;101029.81;4797352;29;70029;-33
2021/04/05 00:08:26;;;;;;;25.75;13.48;;;;;;;29.48;51.71;101034.41;4793450;29;65317;-33
2021/04/05 00:10:56;;;;;;;31.80;17.77;;;;;;;29.55;53.50;101045.19;4794467;29;69099;-33
2021/04/05 00:13:40;;;;;;;38.65;18.80;;;;;;;29.62;55.93;101041.47;4799336;29;66284;-32
2021/04/05 00:16:10;;;;;;;;;;;;;;;29.49;59.06;101043.34;4800584;29;69987;-31
2021/04/05 00:18:42;;;;;;;31.38;19.27;;;;;;;29.71;56.66;101052.94;4798181;29;67035;-33
2021/04/05 00:21:16;;;;;;;38.28;20.70;;;;;;;29.77;56.45;101052.09;4800951;29;69970;-33
2021/04/05 00:23:47;;;;;;;49.35;23.10;;;;;;;29.80;57.14;101057.06;4811671;29;66042;-33
2021/04/05 00:26:18;;;;;;;45.55;23.75;;;;;;;29.88;57.83;101056.03;4794586;29;70615;-33
2021/04/05 00:28:48;;;;;;;43.05;23.17;;;;;;;29.96;57.60;101068.53;4796784;29;65568;-32
2021/04/05 00:31:19;;;;;;;81.95;25.63;;;;;;;29.98;58.43;101058.34;4791419;29;70332;-33
2021/04/05 00:33:49;;;;;;;58.60;24.73;;;;;;;30.13;58.16;101064.31;4796785;29;66751;-35
2021/04/05 00:36:18;;;;;;;49.03;26.00;;;;;;;30.31;58.54;101062.84;4798880;29;69155;-35
2021/04/05 00:38:48;;;;;;;43.88;26.25;;;;;;;30.41;57.96;101065.97;4801508;29;66226;-35
2021/04/05 00:41:18;;;;;;;57.83;25.70;;;;;;;30.45;57.44;101067.19;4797061;29;69221;-35
2021/04/05 00:43:51;;;;;;;49.85;23.63;;;;;;;30.48;57.21;101075.72;4802676;29;64796;-35
2021/04/05 00:46:22;;;;;;;57.88;25.65;;;;;;;30.56;57.21;101073.81;4796208;29;69557;-34
2021/04/05 00:48:52;;;;;;;42.28;23.95;;;;;;;30.56;56.60;101082.75;4804500;29;65092;-35
2021/04/05 00:51:26;;;;;;;40.00;23.33;;;;;;;30.44;56.72;101068.25;4805199;29;69472;-35
2021/04/05 00:53:57;;;;;;;41.07;23.87;;;;;;;30.56;56.18;101096.31;4801550;29;66250;-35
2021/04/05 00:56:27;;;;;;;56.55;25.60;;;;;;;30.58;56.41;101094.22;4803681;29;69798;-35
2021/04/05 00:58:57;;;;;;;35.58;22.90;;;;;;;30.58;56.64;101099.63;4804553;29;65309;-35
2021/04/05 01:01:33;;;;;;;35.10;23.10;;;;;;;30.58;56.41;101099.63;4799569;29;68820;-34
2021/04/05 01:04:05;;;;;;;33.83;22.02;;;;;;;30.62;55.91;101106.31;4803981;29;66009;-36
2021/04/05 01:06:36;;;;;;;41.85;23.80;;;;;;;30.61;55.79;101104.63;4800979;29;69718;-35
2021/04/05 01:09:08;;;;;;;39.75;22.17;;;;;;;30.63;55.72;101107.97;4804706;29;66386;-35
2021/04/05 01:11:38;;;;;;;41.92;21.60;;;;;;;30.64;56.13;101109.59;4797944;29;69877;-35
2021/04/05 01:14:08;;;;;;;38.40;23.10;;;;;;;30.66;55.76;101107.53;4804128;29;65128;-35
2021/04/05 01:16:38;;;;;;;38.17;22.80;;;;;;;30.69;55.32;101109.81;4807220;29;70011;-35
2021/04/05 01:19:12;;;;;;;35.72;22.15;;;;;;;30.65;55.76;101110.47;4803009;29;66013;-35
2021/04/05 01:21:49;;;;;;;31.17;21.90;;;;;;;30.73;55.33;101118.34;4796975;29;69448;-34
2021/04/05 01:24:19;;;;;;;34.47;21.73;;;;;;;30.73;55.35;101124.59;4808361;29;66180;-35
2021/04/05 01:26:51;;;;;;;40.70;23.35;;;;;;;30.76;55.61;101128.75;4795737;29;70166;-34
2021/04/05 01:29:22;;;;;;;33.72;21.58;;;;;;;30.80;55.29;101135.44;4795994;29;66435;-34
2021/04/05 01:31:51;;;;;;;31.17;21.85;;;;;;;30.84;55.09;101125.00;4804119;29;68941;-36
2021/04/05 01:34:21;;;;;;;34.88;22.55;;;;;;;30.85;55.16;101126.66;4803852;29;63852;-34
2021/04/05 01:37:01;;;;;;;38.35;22.63;;;;;;;30.84;54.90;101116.84;4795052;29;69648;-36
2021/04/05 01:39:35;;;;;;;25.63;21.15;;;;;;;30.88;55.14;101120.81;4808635;29;66123;-35
2021/04/05 01:42:11;;;;;;;32.20;21.90;;;;;;;30.90;55.02;101118.75;4804940;29;70682;-35
2021/04/05 01:44:40;;;;;;;31.33;22.48;;;;;;;30.95;54.77;101116.19;4802926;29;66027;-33
2021/04/05 01:47:10;;;;;;;28.88;21.73;;;;;;;30.97;55.07;101119.53;4804323;29;69097;-34
2021/04/05 01:49:40;;;;;;;26.27;21.45;;;;;;;31.01;54.92;101119.91;4809204;29;66512;-35
2021/04/05 01:52:16;;;;;;;36.00;21.25;;;;;;;31.00;55.33;101116.38;4799019;29;70004;-35
2021/04/05 01:54:49;;;;;;;26.25;19.98;;;;;;;31.04;55.01;101120.34;4806959;29;65454;-34
2021/04/05 01:57:19;;;;;;;30.25;21.48;;;;;;;31.04;54.84;101114.91;4808933;29;70239;-34
2021/04/05 01:59:48;;;;;;;30.63;22.38;;;;;;;31.08;54.77;101126.97;4801499;29;66068;-34
2021/04/05 02:02:18;;;;;;;26.10;20.23;;;;;;;31.10;54.74;101119.47;4807983;29;70451;-35
2021/04/05 02:04:50;;;;;;;25.58;21.17;;;;;;;31.11;54.46;101120.28;4808823;29;65276;-35
2021/04/05 02:07:23;;;;;;;25.65;21.17;;;;;;;31.11;54.55;101126.53;4807280;29;69073;-34
2021/04/05 02:09:55;;;;;;;29.85;22.20;;;;;;;31.15;54.32;101132.38;4808141;29;65639;-34
2021/04/05 02:12:25;;;;;;;27.80;22.10;;;;;;;31.19;54.24;101128.16;4808665;29;69831;-34
2021/04/05 02:14:55;;;;;;;31.92;22.65;;;;;;;31.20;54.30;101123.56;4808583;29;65928;-34
2021/04/05 02:17:25;;;;;;;24.92;20.60;;;;;;;31.22;54.42;101127.72;4807589;29;69829;-35
2021/04/05 02:20:01;;;;;;;28.73;20.77;;;;;;;31.22;54.08;101127.72;4806460;29;66113;-34
2021/04/05 02:22:31;;;;;;;37.33;21.95;;;;;;;31.26;53.81;101136.25;4805595;29;70378;-35
2021/04/05 02:25:01;;;;;;;29.80;21.42;;;;;;;31.30;54.05;101129.38;4790769;29;65981;-35
2021/04/05 02:27:35;;;;;;;24.60;21.20;;;;;;;31.28;54.16;101120.63;4805331;29;70108;-34
2021/04/05 02:30:06;;;;;;;30.63;21.13;;;;;;;31.32;54.27;101127.28;4802799;29;65417;-35
2021/04/05 02:32:38;;;;;;;29.95;20.75;;;;;;;31.32;54.04;101121.84;4801833;29;69737;-35
2021/04/05 02:35:10;;;;;;;24.13;19.50;;;;;;;31.39;54.15;101125.38;4804481;29;65237;-35
2021/04/05 02:37:40;;;;;;;28.10;20.35;;;;;;;31.41;53.83;101126.00;4806997;29;69460;-34
2021/04/05 02:40:10;;;;;;;23.30;20.80;;;;;;;31.44;53.65;101122.84;4807913;29;66536;-35
2021/04/05 02:42:40;;;;;;;22.58;20.05;;;;;;;31.46;53.28;101123.47;4796856;29;70059;-35
2021/04/05 02:45:11;;;;;;;25.95;19.52;;;;;;;31.49;53.55;101112.19;4800875;29;66055;-34
2021/04/05 02:47:41;;;;;;;21.77;19.23;;;;;;;31.50;53.75;101116.53;4807153;29;69199;-34
2021/04/05 02:50:11;;;;;;;29.05;20.27;;;;;;;31.51;53.63;101115.50;4804104;29;65918;-35
2021/04/05 02:52:42;;;;;;;30.52;20.42;;;;;;;31.55;53.23;101119.44;4806272;29;71466;-35
2021/04/05 02:55:14;;;;;;;24.75;20.27;;;;;;;31.61;53.54;101115.84;4805078;29;65771;-35
2021/04/05 02:57:45;;;;;;;26.85;19.52;;;;;;;31.63;53.26;101115.63;4806016;29;69966;-35
2021/04/05 03:00:17;;;;;;;22.17;19.92;;;;;;;31.67;53.32;101113.28;4805899;29;65515;-34
2021/04/05 03:02:53;;;;;;;23.00;18.42;;;;;;;31.70;53.09;101108.25;4801491;29;70670;-34
2021/04/05 03:05:25;;;;;;;21.38;18.83;;;;;;;31.75;52.98;101115.75;4802021;29;66151;-35
2021/04/05 03:07:55;;;;;;;31.15;19.95;;;;;;;31.77;53.00;101108.22;4806983;29;70107;-34
2021/04/05 03:10:29;;;;;;;25.77;19.67;;;;;;;31.75;53.07;101089.44;4808055;29;65680;-35
2021/04/05 03:12:59;;;;;;;22.60;20.17;;;;;;;31.86;52.53;101089.78;4804647;29;69796;-34
2021/04/05 03:15:31;;;;;;;24.15;19.13;;;;;;;31.89;53.04;101087.44;4807035;29;65535;-34
2021/04/05 03:18:04;;;;;;;22.60;20.15;;;;;;;31.93;52.66;101091.44;4801441;29;70112;-35
2021/04/05 03:20:35;;;;;;;24.25;19.58;;;;;;;31.88;52.32;101077.66;4810373;29;66322;-35
2021/04/05 03:23:05;;;;;;;22.85;17.60;;;;;;;31.98;52.40;101088.88;4805637;29;70729;-34
2021/04/05 03:25:34;;;;;;;20.65;18.45;;;;;;;31.99;52.30;101085.09;4806104;29;66202;-34
2021/04/05 03:28:04;;;;;;;21.15;19.05;;;;;;;32.02;52.85;101092.78;4803648;29;70466;-34
2021/04/05 03:30:45;;;;;;;20.65;18.48;;;;;;;32.03;52.70;101086.28;4806182;29;66024;-35
2021/04/05 03:33:25;;;;;;;20.27;18.25;;;;;;;32.07;52.35;101075.84;4797154;29;70030;-34
2021/04/05 03:36:03;;;;;;;23.25;18.45;;;;;;;32.12;52.26;101067.00;4805968;29;65403;-36
2021/04/05 03:38:37;;;;;;;20.70;18.67;;;;;;;32.15;52.17;101072.00;4795734;29;69993;-33
2021/04/05 03:41:15;;;;;;;18.60;16.67;;;;;;;32.17;52.18;101069.88;4805713;29;66038;-35
2021/04/05 03:44:03;;;;;;;19.25;17.23;;;;;;;32.13;51.96;101064.09;4806460;29;70350;-35
2021/04/05 03:46:40;;;;;;;20.48;18.25;;;;;;;32.19;51.96;101063.19;4806338;29;66073;-35
2021/04/05 03:49:19;;;;;;;18.85;17.05;;;;;;;32.28;52.00;101071.84;4805476;29;70154;-34
2021/04/05 03:52:13;;;;;;;20.00;17.35;;;;;;;32.21;52.14;101052.94;4791900;29;65219;-34
2021/04/05 03:54:51;;;;;;;20.02;17.95;;;;;;;32.30;52.30;101053.47;4805051;29;70271;-34
2021/04/05 03:57:24;;;;;;;18.08;16.55;;;;;;;32.34;51.94;101048.41;4792926;29;66120;-34
2021/04/05 03:59:56;;;;;;;18.02;16.33;;;;;;;32.34;51.94;101049.22;4797633;29;69255;-34
2021/04/05 04:02:36;;;;;;;18.63;16.60;;;;;;;32.34;51.61;101042.97;4805964;29;66270;-35
2021/04/05 04:05:12;;;;;;;19.67;17.55;;;;;;;32.37;52.22;101043.34;4800181;29;69891;-34
2021/04/05 04:10:18;;;;;;;17.75;15.90;;;;;;;32.44;51.79;101038.69;4805313;29;69922;-35
2021/04/05 04:12:50;;;;;;;19.90;16.42;;;;;;;32.38;51.51;101028.72;4795856;29;65907;-34
2021/04/05 04:15:20;;;;;;;21.30;16.42;;;;;;;32.49;51.93;101032.59;4798821;29;69166;-34
2021/04/05 04:17:51;;;;;;;18.77;16.25;;;;;;;32.53;51.83;101024.81;4807013;29;66061;-34
2021/04/05 04:20:25;;;;;;;18.17;16.30;;;;;;;32.49;51.54;101006.28;4803237;29;68735;-35
2021/04/05 04:22:56;;;;;;;19.73;16.80;;;;;;;32.58;51.62;101019.53;4799493;29;65361;-35
2021/04/05 04:25:26;;;;;;;22.05;17.58;;;;;;;32.61;51.39;101013.66;4800353;29;69068;-34
2021/04/05 04:27:56;;;;;;;19.45;15.85;;;;;;;32.64;51.53;101005.03;4805076;29;65632;-35
2021/04/05 04:30:32;;;;;;;19.20;17.25;;;;;;;32.67;51.62;101010.00;4792492;29;69606;-35
2021/04/05 04:33:07;;;;;;;19.52;16.42;;;;;;;32.66;51.45;100992.06;4791865;29;66502;-34
2021/04/05 04:35:38;;;;;;;18.10;16.33;;;;;;;32.64;51.38;100978.72;4793585;29;70039;-35
2021/04/05 04:38:07;;;;;;;20.10;16.50;;;;;;;32.70;51.45;100988.66;4807992;29;65971;-36
2021/04/05 04:40:37;;;;;;;18.77;16.45;;;;;;;32.72;51.39;100980.28;4808286;29;70263;-34
2021/04/05 04:43:07;;;;;;;18.52;16.27;;;;;;;32.74;51.43;100972.75;4807147;29;66001;-35
2021/04/05 04:45:37;;;;;;;18.73;16.92;;;;;;;32.77;51.46;100961.41;4807591;29;69943;-34
2021/04/05 04:48:07;;;;;;;18.50;16.30;;;;;;;32.80;51.22;100966.38;4807403;29;65869;-34
2021/04/05 04:50:36;;;;;;;18.55;16.70;;;;;;;32.83;51.31;100954.22;4808342;29;69831;-34
2021/04/05 04:53:06;;;;;;;18.40;16.52;;;;;;;32.85;51.24;100954.81;4795423;29;66248;-34
2021/04/05 04:55:38;;;;;;;17.23;15.63;;;;;;;32.87;51.41;100939.91;4802799;29;70084;-34
2021/04/05 04:58:17;;;;;;;19.90;16.65;;;;;;;32.90;51.46;100934.03;4801279;29;65134;-35
2021/04/05 05:00:47;;;;;;;20.15;15.93;;;;;;;32.92;51.32;100926.47;4804390;29;69269;-33
2021/04/05 05:03:19;;;;;;;18.20;16.42;;;;;;;32.97;51.00;100917.63;4809653;29;65222;-34
2021/04/05 05:05:51;;;;;;;20.08;15.73;;;;;;;33.00;51.19;100909.03;4810310;29;69308;-35
2021/04/05 05:08:21;;;;;;;17.00;15.63;;;;;;;33.03;51.09;100914.00;4807016;29;65033;-35
2021/04/05 05:10:53;;;;;;;18.55;15.20;;;;;;;32.94;51.32;100889.03;4807840;29;69976;-33
2021/04/05 05:13:22;;;;;;;;;;;;;;;33.00;51.35;100909.03;4797481;29;66403;-34
2021/04/05 05:15:53;;;;;;;17.15;15.43;;;;;;;33.13;50.98;100905.28;4808074;29;69287;-34
2021/04/05 05:18:25;;;;;;;17.37;15.57;;;;;;;33.11;50.93;100891.09;4810280;29;66417;-35
2021/04/05 05:20:57;;;;;;;17.48;15.20;;;;;;;33.15;51.03;100892.25;4809473;29;69994;-34
2021/04/05 05:23:28;;;;;;;16.40;15.10;;;;;;;33.16;50.93;100883.06;4806939;29;65964;-35
2021/04/05 05:25:59;;;;;;;16.45;15.05;;;;;;;33.18;51.06;100880.91;4809059;29;69626;-36
2021/04/05 05:28:34;;;;;;;16.40;14.82;;;;;;;33.19;50.83;100871.72;4800866;29;66145;-34
2021/04/05 05:31:04;;;;;;;16.55;15.02;;;;;;;33.22;50.72;100865.78;4807239;29;70302;-34
2021/04/05 05:33:36;;;;;;;16.30;14.82;;;;;;;33.21;51.12;100849.72;4808985;29;66053;-34
2021/04/05 05:36:06;;;;;;;17.55;15.70;;;;;;;33.24;50.83;100852.81;4808810;29;69845;-35
2021/04/05 05:38:38;;;;;;;;;;;;;;;33.19;50.97;100849.97;4810005;29;66437;-35
2021/04/05 05:41:19;;;;;;;15.85;14.43;;;;;;;33.19;50.52;100828.22;4808247;29;69980;-33
2021/04/05 05:43:57;;;;;;;16.23;14.57;;;;;;;33.33;50.69;100842.41;4804425;29;66193;-34
2021/04/05 05:46:34;;;;;;;16.45;15.15;;;;;;;33.30;50.54;100829.28;4808009;29;70568;-34
2021/04/05 05:49:26;;;;;;;16.48;14.90;;;;;;;33.36;50.63;100829.13;4803455;29;65787;-34
2021/04/05 05:52:06;;;;;;;15.93;14.48;;;;;;;33.42;50.83;100816.47;4808586;29;70158;-34
2021/04/05 05:55:03;;;;;;;15.85;14.45;;;;;;;33.44;50.72;100808.09;4805307;29;66068;-35
2021/04/05 05:58:05;;;;;;;17.10;15.63;;;;;;;33.43;50.88;100811.88;4799530;29;69905;-34
2021/04/05 06:00:59;;;;;;;16.83;15.05;;;;;;;33.51;50.29;100816.94;4794237;29;65314;-35
2021/04/05 06:03:57;;;;;;;17.13;15.48;;;;;;;33.50;50.43;100818.84;4802831;29;70455;-34
2021/04/05 06:06:58;;;;;;;16.77;15.00;;;;;;;33.43;50.76;100801.81;4802881;29;65560;-34
2021/04/05 06:09:53;;;;;;;16.70;15.32;;;;;;;33.56;50.54;100806.19;4803718;29;69941;-35
2021/04/05 06:12:38;;;;;;;16.10;14.70;;;;;;;33.59;50.36;100806.53;4804913;29;65302;-35
2021/04/05 06:15:24;;;;;;;15.73;14.30;;;;;;;33.58;50.69;100795.91;4795775;29;69455;-34
2021/04/05 06:18:27;;;;;;;16.00;14.50;;;;;;;33.59;50.55;100800.28;4805415;29;66254;-34
2021/04/05 06:21:16;;;;;;;16.27;14.73;;;;;;;33.67;50.62;100786.28;4788190;29;70584;-34
2021/04/05 06:23:50;;;;;;;15.45;14.23;;;;;;;33.70;50.57;100774.09;4808036;29;66425;-35
2021/04/05 06:26:40;;;;;;;16.40;14.98;;;;;;;33.71;50.42;100787.47;4795419;29;69269;-33
2021/04/05 06:29:32;;;;;;;17.17;15.57;;;;;;;33.72;50.42;100772.78;4795298;29;66154;-35
2021/04/05 06:32:33;;;;;;;15.60;14.30;;;;;;;33.69;50.66;100770.56;4795458;29;70446;-35
2021/04/05 06:35:29;;;;;;;16.80;14.82;;;;;;;33.79;50.46;100767.19;4805383;29;66133;-33
2021/04/05 06:38:03;;;;;;;16.10;14.77;;;;;;;33.90;50.32;100765.50;4800474;29;69944;-34
2021/04/05 06:40:36;;;;;;;17.17;14.55;;;;;;;33.85;50.31;100749.94;4794502;29;66485;-33
2021/04/05 06:43:24;;;;;;;14.82;13.75;;;;;;;33.96;50.11;100761.81;4791336;29;70170;-34
2021/04/05 06:46:25;;;;;;;15.15;13.98;;;;;;;33.99;50.27;100758.59;4806652;29;67031;-34
2021/04/05 06:49:06;;;;;;;15.18;13.90;;;;;;;34.00;50.12;100749.38;4803388;29;70328;-33
2021/04/05 06:52:33;;;;;;;15.40;13.97;;;;;;;34.03;50.19;100746.16;4805042;29;65894;-34
2021/04/05 06:55:39;;;;;;;14.25;13.05;;;;;;;34.11;49.99;100748.50;4797785;29;68757;-34
2021/04/05 06:58:14;;;;;;;15.45;14.07;;;;;;;34.20;49.85;100749.75;4805582;29;66084;-34
2021/04/05 07:01:11;;;;;;;15.25;14.00;;;;;;;34.22;49.83;100744.88;4805623;29;69999;-34
2021/04/05 07:04:15;;;;;;;13.65;12.52;;;;;;;34.16;49.64;100732.28;4807363;29;65076;-34
2021/04/05 07:06:55;;;;;;;16.83;14.10;;;;;;;34.30;49.56;100740.09;4805459;29;69462;-33
2021/04/05 07:09:43;;;;;;;14.07;12.95;;;;;;;34.33;49.78;100731.44;4801532;29;65932;-33
2021/04/05 07:12:20;;;;;;;13.93;12.43;;;;;;;34.22;49.76;100712.22;4792161;29;70117;-34
2021/04/05 07:15:24;;;;;;;14.05;12.50;;;;;;;34.31;49.84;100733.59;4801414;29;65830;-34
2021/04/05 07:18:24;;;;;;;13.40;12.23;;;;;;;34.36;49.57;100730.97;4792871;29;69909;-34
2021/04/05 07:21:14;;;;;;;12.88;11.85;;;;;;;34.41;49.60;100725.59;4803249;29;66290;-34
2021/04/05 07:23:50;;;;;;;12.77;11.88;;;;;;;34.47;49.04;100716.44;4792568;29;68944;-34
2021/04/05 07:26:38;;;;;;;13.82;12.35;;;;;;;34.41;49.19;100707.34;4803532;29;65302;-34
2021/04/05 07:29:22;;;;;;;13.32;12.10;;;;;;;34.52;49.37;100713.78;4804857;29;69922;-34
2021/04/05 07:31:58;;;;;;;12.85;11.82;;;;;;;34.58;49.36;100715.53;4806948;29;67055;-34
2021/04/05 07:34:50;;;;;;;13.55;11.60;;;;;;;34.58;48.94;100707.38;4802957;29;69932;-33
2021/04/05 07:37:47;;;;;;;12.68;11.70;;;;;;;34.61;48.99;100706.03;4795983;29;65839;-33
2021/04/05 07:40:48;;;;;;;13.10;11.90;;;;;;;34.59;48.35;100698.09;4800398;29;69182;-34
2021/04/05 07:43:50;;;;;;;11.65;10.57;;;;;;;34.70;48.61;100702.63;4800300;29;66010;-35
2021/04/05 07:46:42;;;;;;;12.18;11.13;;;;;;;34.73;48.66;100700.47;4804757;29;69826;-34
2021/04/05 07:49:31;;;;;;;13.65;10.93;;;;;;;34.72;48.65;100694.22;4796573;29;66615;-33
2021/04/05 07:52:13;;;;;;;11.32;10.27;;;;;;;34.78;48.33;100695.94;4793252;29;70049;-35
2021/04/05 07:54:44;;;;;;;11.35;10.45;;;;;;;34.83;48.55;100684.28;4795069;29;65141;-34
2021/04/05 07:57:22;;;;;;;11.27;10.40;;;;;;;34.85;48.31;100684.84;4802514;29;69903;-34
2021/04/05 08:00:30;;;;;;;10.70;9.98;;;;;;;34.83;47.90;100684.28;4800294;29;66286;-35
2021/04/05 08:03:15;;;;;;;11.02;10.23;;;;;;;34.92;48.03;100685.50;4802300;29;69943;-34
2021/04/05 08:06:10;;;;;;;10.25;9.38;;;;;;;34.89;47.74;100675.09;4804925;29;65146;-34
2021/04/05 08:09:14;;;;;;;11.32;10.32;;;;;;;34.93;47.58;100668.88;4803901;29;69093;-34
2021/04/05 08:12:05;;;;;;;10.68;9.68;;;;;;;34.96;47.66;100662.09;4808806;29;66305;-33
2021/04/05 08:14:43;;;;;;;10.35;9.55;;;;;;;35.00;47.81;100676.88;4803894;29;69780;-34
2021/04/05 08:17:19;;;;;;;11.65;9.25;;;;;;;34.98;47.50;100670.84;4804336;29;66037;-33
2021/04/05 08:20:05;;;;;;;10.38;9.38;;;;;;;34.97;47.87;100671.94;4799406;29;69838;-34
2021/04/05 08:22:57;;;;;;;10.07;9.18;;;;;;;34.99;48.21;100672.47;4810090;29;66104;-34
2021/04/05 08:26:25;;;;;;;11.15;9.25;;;;;;;34.95;47.66;100665.06;4796470;29;70038;-34
2021/04/05 08:29:20;;;;;;;10.23;9.38;;;;;;;35.01;47.66;100670.31;4796595;29;65953;-34
2021/04/05 08:31:59;;;;;;;10.82;9.80;;;;;;;35.04;47.66;100664.38;4801029;29;70915;-37
2021/04/05 08:34:47;;;;;;;9.05;8.45;;;;;;;34.98;47.65;100659.94;4808019;29;65283;-34
2021/04/05 08:37:40;;;;;;;9.30;8.60;;;;;;;35.07;47.74;100657.63;4803301;29;69728;-34
2021/04/05 08:40:34;;;;;;;8.93;8.15;;;;;;;35.01;47.63;100659.44;4808393;29;65076;-33
2021/04/05 08:43:45;;;;;;;10.20;9.00;;;;;;;35.00;47.49;100657.78;4807214;29;69794;-35
2021/04/05 08:46:24;;;;;;;9.23;8.52;;;;;;;35.05;47.72;100654.28;4795780;29;66036;-34
2021/04/05 08:49:01;;;;;;;9.43;8.75;;;;;;;35.01;48.00;100656.69;4809092;29;70571;-34
2021/04/05 08:51:47;;;;;;;12.63;8.90;;;;;;;34.99;47.86;100645.22;4808148;29;66730;-34
2021/04/05 08:54:25;;;;;;;9.60;8.80;;;;;;;35.08;47.56;100662.81;4803981;29;69288;-34
2021/04/05 08:57:04;;;;;;;12.82;8.98;;;;;;;35.09;47.65;100660.91;4806831;29;65359;-34
2021/04/05 08:59:48;;;;;;;9.63;8.32;;;;;;;35.05;47.66;100663.31;4801549;29;69826;-35
2021/04/05 09:02:25;;;;;;;9.98;8.57;;;;;;;35.06;47.91;100643.16;4810882;29;65374;-34
2021/04/05 09:04:56;;;;;;;14.45;8.57;;;;;;;35.12;47.57;100655.78;4796245;29;69289;-33
2021/04/05 09:07:50;;;;;;;10.30;9.27;;;;;;;34.98;47.44;100634.59;4802975;29;65018;-33
2021/04/05 09:10:25;;;;;;;9.80;8.57;;;;;;;35.12;47.65;100647.59;4800220;29;69070;-34
2021/04/05 09:12:58;;;;;;;8.88;8.07;;;;;;;35.10;47.60;100652.50;4810135;29;65982;-34
2021/04/05 09:15:28;;;;;;;9.85;9.15;;;;;;;35.13;47.71;100654.72;4801533;29;70081;-34
2021/04/05 09:18:12;;;;;;;10.52;8.00;;;;;;;35.10;47.63;100647.06;4797103;29;65897;-34
2021/04/05 09:21:06;;;;;;;9.43;8.48;;;;;;;35.06;47.42;100648.63;4802238;29;69987;-34
2021/04/05 09:24:12;;;;;;;8.68;8.07;;;;;;;35.06;47.52;100645.06;4808585;29;65910;-34
2021/04/05 09:27:03;;;;;;;9.15;8.38;;;;;;;35.04;47.69;100639.84;4808606;29;69297;-34
2021/04/05 09:29:53;;;;;;;9.55;8.60;;;;;;;35.06;47.94;100642.34;4805720;29;66570;-35
2021/04/05 09:32:58;;;;;;;11.63;8.50;;;;;;;34.97;48.08;100631.03;4796695;29;70451;-34
2021/04/05 09:36:01;;;;;;;8.80;8.00;;;;;;;35.00;48.03;100641.44;4786816;29;65946;-34
2021/04/05 09:38:54;;;;;;;8.63;7.90;;;;;;;35.02;47.64;100633.84;4795479;29;69992;-34
2021/04/05 09:41:52;;;;;;;8.70;8.02;;;;;;;34.94;48.13;100626.09;4799184;29;65168;-34
2021/04/05 09:44:45;;;;;;;15.75;8.38;;;;;;;35.02;47.69;100633.84;4790924;29;70085;-35
2021/04/05 09:47:36;;;;;;;10.23;7.88;;;;;;;35.00;47.69;100638.72;4804973;29;65977;-35
2021/04/05 09:50:32;;;;;;;9.32;8.52;;;;;;;34.95;47.74;100633.19;4807651;29;69611;-34
2021/04/05 09:53:15;;;;;;;10.48;8.82;;;;;;;34.98;47.89;100648.22;4798688;29;65435;-34
2021/04/05 09:55:51;;;;;;;14.05;8.48;;;;;;;34.87;48.16;100633.63;4808262;29;69810;-34
2021/04/05 09:58:25;;;;;;;9.02;8.02;;;;;;;34.93;47.67;100648.97;4799878;29;66484;-34
2021/04/05 10:01:04;;;;;;;12.18;8.00;;;;;;;34.96;47.94;100640.28;4822274;29;69882;-34
2021/04/05 10:03:46;;;;;;;10.95;7.90;;;;;;;34.92;47.58;100652.78;4795139;29;66037;-34
2021/04/05 10:06:20;;;;;;;10.25;8.07;;;;;;;34.89;48.09;100647.84;4805665;29;70029;-34
2021/04/05 10:08:52;;;;;;;13.18;7.85;;;;;;;34.87;48.20;100669.06;4808862;29;67064;-34
2021/04/05 10:11:22;;;;;;;22.53;9.90;;;;;;;34.64;48.15;100659.22;4794984;29;70044;-34
2021/04/05 10:13:56;;;;;;;22.30;10.87;;;;;;;34.55;48.40;100661.53;4798820;29;67173;-34
2021/04/05 10:16:26;;;;;;;14.55;10.57;;;;;;;34.41;48.16;100665.69;4797829;29;70036;-35
2021/04/05 10:19:30;;;;;;;24.13;10.13;;;;;;;34.23;48.88;100664.84;4812445;29;65940;-34
2021/04/05 10:22:07;;;;;;;31.05;11.40;;;;;;;34.27;48.70;100667.94;4791841;29;69692;-34
2021/04/05 10:24:43;;;;;;;42.60;11.98;;;;;;;34.20;48.68;100659.91;4803404;29;66384;-35
2021/04/05 10:27:17;;;;;;;22.35;11.73;;;;;;;34.15;48.86;100657.09;4795501;29;71037;-34
2021/04/05 10:29:53;;;;;;;22.55;12.38;;;;;;;33.98;48.94;100642.66;4797796;29;65640;-34
2021/04/05 10:32:27;;;;;;;25.20;12.57;;;;;;;34.09;48.96;100657.28;4794908;29;69502;-35
2021/04/05 10:34:59;;;;;;;39.85;17.15;;;;;;;34.04;49.01;100657.97;4793651;29;66122;-34
2021/04/05 10:37:39;;;;;;;34.28;18.80;;;;;;;33.90;48.92;100649.31;4792672;29;69975;-35
2021/04/05 10:40:14;;;;;;;38.38;15.48;;;;;;;33.88;49.09;100639.75;4794520;29;66318;-34
2021/04/05 10:42:58;;;;;;;25.65;13.80;;;;;;;33.84;49.07;100644.03;4800627;29;70460;-34
2021/04/05 10:45:32;;;;;;;25.23;14.40;;;;;;;33.82;49.40;100638.84;4800539;29;67148;-35
2021/04/05 10:48:07;;;;;;;29.55;13.65;;;;;;;33.85;49.32;100648.41;4801142;29;70708;-34
2021/04/05 10:50:54;;;;;;;30.02;13.35;;;;;;;33.71;49.28;100640.59;4798938;29;66074;-34
2021/04/05 10:53:27;;;;;;;25.67;12.48;;;;;;;33.73;49.07;100632.97;4795052;29;69882;-35
2021/04/05 10:56:06;;;;;;;27.15;12.57;;;;;;;33.74;49.60;100640.09;4792365;29;65951;-34
2021/04/05 10:59:14;;;;;;;17.58;11.35;;;;;;;33.70;49.28;100638.91;4797948;29;68924;-35
2021/04/05 11:01:56;;;;;;;36.33;12.43;;;;;;;33.69;49.96;100648.16;4793669;29;66137;-35
2021/04/05 11:04:32;;;;;;;25.45;12.18;;;;;;;33.90;49.53;100648.50;4790845;29;69758;-34
2021/04/05 11:07:04;;;;;;;21.23;11.77;;;;;;;33.97;49.38;100638.28;4801000;29;65333;-34
2021/04/05 11:09:40;;;;;;;23.02;11.40;;;;;;;34.06;49.29;100642.28;4803567;29;71057;-34
2021/04/05 11:12:12;;;;;;;25.55;11.25;;;;;;;34.12;49.21;100638.53;4796414;29;66031;-34
2021/04/05 11:14:46;;;;;;;22.85;10.88;;;;;;;34.16;49.05;100642.44;4795333;29;69803;-35
2021/04/05 11:17:23;;;;;;;20.45;11.82;;;;;;;34.12;49.30;100629.56;4797209;29;65830;-34
2021/04/05 11:19:55;;;;;;;23.42;11.10;;;;;;;34.22;49.09;100652.31;4798622;29;69001;-35
2021/04/05 11:22:29;;;;;;;20.73;10.95;;;;;;;34.24;48.99;100649.34;4805643;29;65250;-35
2021/04/05 11:25:04;;;;;;;17.02;10.90;;;;;;;34.18;48.98;100634.81;4802338;29;69974;-35
2021/04/05 11:27:46;;;;;;;17.25;10.45;;;;;;;34.20;48.78;100649.03;4806212;29;66748;-35
2021/04/05 11:30:24;;;;;;;27.85;10.48;;;;;;;34.25;49.11;100662.72;4802080;29;70008;-35
2021/04/05 11:32:56;;;;;;;26.25;11.23;;;;;;;34.30;48.93;100664.69;4802471;29;66473;-34
2021/04/05 11:35:32;;;;;;;20.42;10.82;;;;;;;34.28;49.03;100661.41;4805545;29;69246;-34
2021/04/05 11:38:13;;;;;;;20.25;11.57;;;;;;;34.21;49.00;100667.03;4799868;29;67060;-35
2021/04/05 11:40:46;;;;;;;14.25;10.90;;;;;;;34.29;48.99;100671.19;4811420;29;69129;-35
2021/04/05 11:43:20;;;;;;;27.50;12.80;;;;;;;34.17;49.37;100676.75;4795083;29;66526;-35
2021/04/05 11:46:02;;;;;;;21.35;12.25;;;;;;;33.53;50.66;100670.69;4794156;29;70106;-34
2021/04/05 11:48:31;;;;;;;27.23;13.13;;;;;;;33.22;50.53;100680.13;4795878;29;65188;-35
2021/04/05 11:51:02;;;;;;;30.83;12.32;;;;;;;33.10;50.69;100672.03;4805586;29;69222;-34
2021/04/05 11:54:05;;;;;;;36.63;14.20;;;;;;;32.84;51.22;100685.00;4806381;29;66095;-34
2021/04/05 11:56:36;;;;;;;28.27;12.25;;;;;;;32.84;51.21;100679.59;4784121;29;68997;-34
2021/04/05 11:59:26;;;;;;;27.63;13.43;;;;;;;32.61;51.42;100669.56;4804458;29;65975;-35
2021/04/05 12:02:23;;;;;;;29.92;12.98;;;;;;;32.63;51.26;100672.06;4802100;29;69889;-32
2021/04/05 12:05:04;;;;;;;34.10;14.18;;;;;;;32.58;51.15;100669.22;4804229;29;66196;-32
2021/04/05 12:07:56;;;;;;;24.95;13.52;;;;;;;32.70;51.00;100689.06;4804114;29;70339;-32